createdAt,value
2018-04-12T00:00:09.447Z,18.10
2018-04-12T00:02:38.951Z,17.70
2018-04-12T00:05:08.558Z,17.30
2018-04-12T00:07:38.633Z,17.00
2018-04-12T00:10:08.578Z,16.80
2018-04-12T00:12:38.304Z,16.60
2018-04-12T00:15:07.753Z,16.40
2018-04-12T00:17:37.755Z,16.30
2018-04-12T00:20:07.592Z,16.30
2018-04-12T00:22:37.491Z,16.20
2018-04-12T00:25:07.085Z,16.10
2018-04-12T00:27:36.734Z,16.10
2018-04-12T00:30:06.672Z,16.10
2018-04-12T00:32:36.736Z,16.00
2018-04-12T00:35:06.586Z,16.00
2018-04-12T00:37:36.590Z,16.00
2018-04-12T00:40:07.360Z,16.00
2018-04-12T00:42:37.328Z,15.90
2018-04-12T00:45:07.304Z,15.80
2018-04-12T00:47:37.172Z,15.80
2018-04-12T00:50:07.021Z,15.70
2018-04-12T00:52:36.850Z,15.80
2018-04-12T00:55:06.802Z,15.80
2018-04-12T00:57:36.604Z,15.70
2018-04-12T01:00:06.504Z,15.80
2018-04-12T01:02:36.315Z,15.60
2018-04-12T01:05:06.299Z,15.70
2018-04-12T01:07:40.082Z,15.70
2018-04-12T01:10:10.365Z,15.70
2018-04-12T01:12:44.687Z,15.70
2018-04-12T01:15:14.665Z,15.70
2018-04-12T01:17:44.373Z,15.80
2018-04-12T01:20:14.572Z,15.90
2018-04-12T01:22:46.904Z,15.90
2018-04-12T01:25:16.750Z,15.90
2018-04-12T01:27:47.693Z,15.90
2018-04-12T01:30:17.820Z,15.90
2018-04-12T01:33:13.245Z,16.00
2018-04-12T01:35:43.338Z,16.00
2018-04-12T01:38:57.562Z,16.10
2018-04-12T01:41:27.395Z,16.00
2018-04-12T01:43:57.499Z,16.10
2018-04-12T01:46:27.299Z,16.20
2018-04-12T01:48:57.427Z,16.10
2018-04-12T01:51:27.479Z,16.10
2018-04-12T01:53:57.201Z,16.00
2018-04-12T01:56:26.992Z,16.00
2018-04-12T01:58:57.360Z,16.00
2018-04-12T02:01:27.252Z,16.00
2018-04-12T02:03:58.014Z,16.00
2018-04-12T02:06:28.704Z,15.90
2018-04-12T02:08:59.724Z,16.00
2018-04-12T02:11:29.750Z,16.00
2018-04-12T02:13:59.904Z,16.10
2018-04-12T02:16:30.245Z,16.20
2018-04-12T02:19:01.158Z,16.10
2018-04-12T02:21:31.125Z,16.20
2018-04-12T02:24:01.160Z,16.20
2018-04-12T02:26:31.119Z,16.20
2018-04-12T02:29:01.897Z,16.10
2018-04-12T02:31:31.796Z,16.00
2018-04-12T02:37:23.449Z,15.90
2018-04-12T02:39:53.250Z,15.90
2018-04-12T02:42:23.174Z,15.90
2018-04-12T02:44:53.216Z,15.80
2018-04-12T02:47:22.603Z,15.80
2018-04-12T02:49:52.482Z,15.80
2018-04-12T02:52:21.860Z,15.80
2018-04-12T02:54:52.189Z,15.80
2018-04-12T02:57:21.994Z,15.70
2018-04-12T02:59:52.031Z,15.70
2018-04-12T03:02:21.820Z,15.70
2018-04-12T03:04:51.867Z,15.70
2018-04-12T03:07:21.342Z,15.80
2018-04-12T03:09:51.152Z,15.80
2018-04-12T03:12:20.995Z,15.90
2018-04-12T03:18:13.112Z,16.00
2018-04-12T03:24:03.859Z,16.00
2018-04-12T03:26:33.828Z,16.00
2018-04-12T03:35:10.153Z,16.10
2018-04-12T03:37:39.621Z,16.10
2018-04-12T03:40:09.408Z,16.10
2018-04-12T03:42:39.223Z,16.10
2018-04-12T03:45:08.939Z,16.20
2018-04-12T03:47:39.003Z,16.20
2018-04-12T03:50:08.968Z,16.20
2018-04-12T03:52:39.946Z,16.30
2018-04-12T03:55:10.648Z,16.30
2018-04-12T03:57:40.595Z,16.20
2018-04-12T04:00:10.241Z,16.30
2018-04-12T04:02:40.379Z,16.40
2018-04-12T04:05:10.185Z,16.40
2018-04-12T04:07:40.256Z,16.50
2018-04-12T04:10:10.992Z,16.50
2018-04-12T04:12:41.167Z,16.50
2018-04-12T04:18:43.112Z,16.60
2018-04-12T04:21:15.021Z,16.50
2018-04-12T04:23:44.960Z,16.50
2018-04-12T04:26:15.100Z,16.40
2018-04-12T04:28:45.032Z,16.40
2018-04-12T04:31:14.896Z,16.40
2018-04-12T04:33:44.864Z,16.40
2018-04-12T04:36:14.842Z,16.40
2018-04-12T04:38:44.648Z,16.30
2018-04-12T04:44:37.161Z,16.10
2018-04-12T04:47:06.621Z,16.10
2018-04-12T04:49:36.368Z,16.00
2018-04-12T04:52:06.324Z,16.00
2018-04-12T04:54:36.195Z,15.90
2018-04-12T04:57:06.464Z,15.80
2018-04-12T04:59:36.527Z,15.80
2018-04-12T05:02:06.608Z,15.80
2018-04-12T05:04:36.367Z,15.70
2018-04-12T05:07:06.353Z,15.70
2018-04-12T05:09:37.517Z,15.60
2018-04-12T05:12:07.005Z,15.60
2018-04-12T05:14:36.970Z,15.60
2018-04-12T05:17:06.815Z,15.60
2018-04-12T05:19:36.664Z,15.70
2018-04-12T05:25:28.516Z,15.70
2018-04-12T05:27:58.175Z,15.70
2018-04-12T05:30:28.505Z,15.80
2018-04-12T05:32:58.419Z,15.70
2018-04-12T05:35:28.155Z,15.70
2018-04-12T05:37:58.358Z,15.70
2018-04-12T05:43:48.720Z,15.70
2018-04-12T05:46:18.372Z,15.60
2018-04-12T05:48:48.455Z,15.60
2018-04-12T05:51:18.506Z,15.50
2018-04-12T05:53:48.640Z,15.50
2018-04-12T05:56:18.003Z,15.50
2018-04-12T05:58:48.000Z,15.50
2018-04-12T06:01:17.847Z,15.50
2018-04-12T06:03:47.093Z,15.50
2018-04-12T06:06:16.966Z,15.50
2018-04-12T06:08:46.750Z,15.50
2018-04-12T06:11:16.432Z,15.40
2018-04-12T06:13:46.049Z,15.40
2018-04-12T06:16:15.989Z,15.40
2018-04-12T06:18:45.518Z,15.30
2018-04-12T06:21:15.234Z,15.30
2018-04-12T06:23:44.672Z,15.30
2018-04-12T06:26:15.252Z,15.30
2018-04-12T06:28:45.000Z,15.20
2018-04-12T06:31:14.197Z,15.30
2018-04-12T06:33:44.718Z,15.20
2018-04-12T06:36:14.765Z,15.20
2018-04-12T06:38:44.519Z,15.10
2018-04-12T06:41:14.397Z,15.10
2018-04-12T06:43:44.245Z,15.10
2018-04-12T06:46:13.805Z,15.10
2018-04-12T06:48:43.634Z,15.10
2018-04-12T06:51:13.229Z,15.10
2018-04-12T06:53:44.029Z,15.10
2018-04-12T06:56:13.364Z,15.00
2018-04-12T06:58:43.261Z,15.10
2018-04-12T07:01:13.074Z,15.00
2018-04-12T07:03:42.849Z,15.10
2018-04-12T07:06:12.313Z,15.10
2018-04-12T07:08:42.181Z,15.10
2018-04-12T07:11:12.206Z,15.20
2018-04-12T07:13:43.043Z,15.20
2018-04-12T07:16:12.734Z,15.20
2018-04-12T07:18:42.436Z,15.30
2018-04-12T07:21:12.101Z,15.30
2018-04-12T07:23:41.936Z,15.30
2018-04-12T07:26:11.382Z,15.40
2018-04-12T07:28:40.939Z,15.40
2018-04-12T07:31:10.655Z,15.50
2018-04-12T07:33:40.169Z,15.50
2018-04-12T07:36:10.058Z,15.50
2018-04-12T07:38:39.988Z,15.60
2018-04-12T07:41:09.580Z,15.60
2018-04-12T07:43:39.332Z,15.60
2018-04-12T07:46:08.977Z,15.60
2018-04-12T07:52:11.032Z,15.60
2018-04-12T07:54:40.917Z,15.60
2018-04-12T07:57:11.292Z,15.50
2018-04-12T07:59:41.692Z,15.50
2018-04-12T08:02:11.594Z,15.40
2018-04-12T08:04:41.607Z,15.40
2018-04-12T08:07:11.679Z,15.40
2018-04-12T08:09:41.828Z,15.30
2018-04-12T08:12:12.084Z,15.30
2018-04-12T08:14:42.434Z,15.20
2018-04-12T08:17:12.572Z,15.20
2018-04-12T08:19:42.775Z,15.10
2018-04-12T08:22:12.983Z,15.10
2018-04-12T08:24:43.039Z,15.10
2018-04-12T08:27:13.160Z,15.00
2018-04-12T08:29:43.079Z,14.90
2018-04-12T08:32:13.084Z,14.90
2018-04-12T08:34:43.305Z,14.90
2018-04-12T08:37:13.470Z,14.90
2018-04-12T08:39:43.422Z,14.90
2018-04-12T08:42:13.373Z,14.90
2018-04-12T08:48:05.022Z,14.70
2018-04-12T08:50:35.053Z,14.70
2018-04-12T08:53:05.851Z,14.80
2018-04-12T08:55:35.700Z,14.70
2018-04-12T08:58:05.698Z,14.80
2018-04-12T09:00:35.632Z,14.70
2018-04-12T09:03:05.470Z,14.70
2018-04-12T09:05:35.408Z,14.70
2018-04-12T09:08:05.586Z,14.70
2018-04-12T09:10:35.453Z,14.70
2018-04-12T09:13:43.154Z,14.70
2018-04-12T09:16:13.856Z,14.80
2018-04-12T09:18:43.904Z,14.80
2018-04-12T09:21:13.795Z,14.80
2018-04-12T09:23:43.661Z,14.90
2018-04-12T09:26:13.567Z,14.90
2018-04-12T09:28:43.242Z,14.90
2018-04-12T09:31:13.142Z,14.90
2018-04-12T09:33:42.504Z,14.90
2018-04-12T09:36:12.588Z,14.90
2018-04-12T09:38:42.641Z,14.90
2018-04-12T09:41:12.411Z,14.90
2018-04-12T09:43:42.449Z,14.90
2018-04-12T09:46:13.252Z,14.90
2018-04-12T09:48:43.342Z,14.80
2018-04-12T09:51:13.113Z,15.00
2018-04-12T09:53:42.865Z,15.00
2018-04-12T09:56:12.635Z,15.00
2018-04-12T09:58:42.452Z,15.00
2018-04-12T10:01:13.568Z,15.00
2018-04-12T10:03:45.396Z,14.90
2018-04-12T10:06:20.302Z,15.00
2018-04-12T10:08:55.569Z,15.00
2018-04-12T10:11:25.270Z,15.00
2018-04-12T10:13:55.651Z,15.10
2018-04-12T10:16:25.569Z,15.10
2018-04-12T10:18:55.476Z,15.20
2018-04-12T10:21:25.244Z,15.20
2018-04-12T10:23:54.992Z,15.20
2018-04-12T10:26:24.864Z,15.20
2018-04-12T10:28:54.906Z,15.20
2018-04-12T10:31:25.151Z,15.10
2018-04-12T10:33:54.903Z,15.00
2018-04-12T10:36:24.973Z,14.90
2018-04-12T10:38:54.640Z,14.70
2018-04-12T10:41:24.370Z,14.70
2018-04-12T10:43:54.529Z,14.60
2018-04-12T10:46:24.289Z,14.50
2018-04-12T10:48:54.037Z,14.50
2018-04-12T10:51:24.588Z,14.60
2018-04-12T10:53:54.479Z,14.50
2018-04-12T10:56:24.395Z,14.60
2018-04-12T10:58:54.463Z,14.60
2018-04-12T11:01:24.482Z,14.60
2018-04-12T11:03:54.646Z,14.70
2018-04-12T11:06:24.624Z,14.80
2018-04-12T11:08:54.503Z,14.80
2018-04-12T11:11:24.450Z,14.80
2018-04-12T11:13:54.188Z,14.90
2018-04-12T11:16:23.768Z,14.90
2018-04-12T11:18:53.477Z,14.90
2018-04-12T11:21:23.571Z,14.90
2018-04-12T11:23:53.418Z,14.90
2018-04-12T11:26:23.364Z,14.90
2018-04-12T11:28:53.217Z,14.90
2018-04-12T11:31:24.010Z,14.90
2018-04-12T11:33:53.890Z,14.80
2018-04-12T11:39:43.831Z,14.80
2018-04-12T11:42:13.781Z,14.90
2018-04-12T11:44:43.501Z,14.90
2018-04-12T11:47:12.928Z,14.90
2018-04-12T11:49:42.629Z,14.90
2018-04-12T11:52:12.415Z,14.90
2018-04-12T11:54:42.023Z,15.00
2018-04-12T11:57:11.374Z,15.10
2018-04-12T11:59:41.001Z,15.20
2018-04-12T12:02:10.493Z,15.40
2018-04-12T12:04:40.104Z,15.50
2018-04-12T12:07:09.953Z,15.60
2018-04-12T12:09:39.649Z,15.70
2018-04-12T12:12:11.221Z,15.70
2018-04-12T12:14:42.226Z,15.70
2018-04-12T12:17:13.748Z,15.70
2018-04-12T12:19:48.743Z,15.50
2018-04-12T12:22:18.229Z,15.50
2018-04-12T12:24:47.578Z,15.40
2018-04-12T12:27:21.868Z,15.40
2018-04-12T12:29:51.241Z,15.40
2018-04-12T12:32:23.952Z,15.40
2018-04-12T12:34:53.494Z,15.30
2018-04-12T12:37:22.856Z,15.40
2018-04-12T12:39:53.649Z,15.50
2018-04-12T12:42:23.529Z,15.50
2018-04-12T12:44:55.249Z,15.60
2018-04-12T12:47:27.880Z,15.70
2018-04-12T12:50:00.142Z,15.70
2018-04-12T12:52:29.738Z,15.80
2018-04-12T12:54:59.452Z,15.80
2018-04-12T12:57:31.062Z,15.90
2018-04-12T13:03:33.182Z,16.10
2018-04-12T13:06:03.019Z,16.30
2018-04-12T13:08:32.854Z,16.30
2018-04-12T13:11:02.519Z,16.40
2018-04-12T13:13:32.288Z,16.50
2018-04-12T13:16:01.600Z,16.70
2018-04-12T13:18:31.371Z,16.80
2018-04-12T13:21:01.201Z,16.90
2018-04-12T13:23:31.760Z,17.10
2018-04-12T13:26:01.662Z,17.30
2018-04-12T13:28:31.459Z,17.40
2018-04-12T13:31:01.069Z,17.60
2018-04-12T13:33:30.982Z,17.80
2018-04-12T13:36:00.891Z,18.10
2018-04-12T13:38:30.517Z,18.30
2018-04-12T13:41:02.537Z,18.60
2018-04-12T13:43:35.537Z,18.90
2018-04-12T13:46:05.514Z,19.10
2018-04-12T13:48:35.369Z,19.10
2018-04-12T13:51:06.781Z,18.90
2018-04-12T13:53:36.727Z,18.70
2018-04-12T13:56:06.497Z,18.70
2018-04-12T13:58:36.175Z,18.80
2018-04-12T14:01:05.975Z,18.80
2018-04-12T14:03:35.845Z,18.80
2018-04-12T14:06:05.630Z,18.90
2018-04-12T14:08:35.537Z,19.00
2018-04-12T14:11:05.395Z,19.00
2018-04-12T14:13:35.275Z,19.10
2018-04-12T14:16:09.709Z,19.30
2018-04-12T14:18:39.917Z,19.30
2018-04-12T14:21:09.243Z,19.60
2018-04-12T14:23:39.057Z,19.80
2018-04-12T14:26:09.965Z,20.00
2018-04-12T14:28:40.420Z,20.10
2018-04-12T14:31:10.277Z,20.10
2018-04-12T14:33:40.101Z,20.10
2018-04-12T14:36:09.530Z,20.00
2018-04-12T14:38:39.781Z,20.10
2018-04-12T14:41:10.448Z,20.30
2018-04-12T14:43:41.849Z,20.20
2018-04-12T14:46:11.937Z,20.20
2018-04-12T14:48:41.668Z,20.30
2018-04-12T14:51:11.021Z,20.40
2018-04-12T14:53:44.163Z,20.40
2018-04-12T14:56:13.814Z,20.70
2018-04-12T14:58:44.111Z,21.10
2018-04-12T15:01:13.582Z,21.10
2018-04-12T15:03:45.596Z,21.00
2018-04-12T15:06:15.217Z,20.90
2018-04-12T15:08:44.609Z,21.10
2018-04-12T15:11:14.777Z,21.30
2018-04-12T15:13:47.369Z,21.30
2018-04-12T15:16:16.914Z,21.60
2018-04-12T15:18:46.308Z,21.60
2018-04-12T15:21:16.405Z,21.60
2018-04-12T15:23:47.711Z,21.80
2018-04-12T15:26:17.596Z,21.80
2018-04-12T15:28:47.506Z,21.80
2018-04-12T15:31:17.448Z,21.80
2018-04-12T15:33:48.257Z,22.00
2018-04-12T15:36:18.208Z,21.90
2018-04-12T15:38:48.582Z,22.00
2018-04-12T15:41:17.991Z,22.10
2018-04-12T15:43:51.177Z,21.90
2018-04-12T15:46:20.630Z,21.80
2018-04-12T15:48:50.540Z,21.70
2018-04-12T15:51:20.449Z,21.60
2018-04-12T15:53:50.334Z,21.70
2018-04-12T15:56:20.302Z,22.00
2018-04-12T15:58:50.193Z,22.10
2018-04-12T16:01:20.107Z,22.10
2018-04-12T16:03:49.900Z,22.10
2018-04-12T16:06:19.785Z,22.10
2018-04-12T16:08:49.624Z,22.40
2018-04-12T16:11:19.331Z,22.70
2018-04-12T16:13:48.956Z,22.80
2018-04-12T16:16:18.413Z,22.90
2018-04-12T16:18:48.340Z,22.70
2018-04-12T16:21:21.629Z,22.60
2018-04-12T16:23:51.651Z,22.70
2018-04-12T16:26:21.615Z,23.00
2018-04-12T16:28:51.729Z,23.30
2018-04-12T16:31:22.042Z,24.00
2018-04-12T16:33:51.552Z,24.50
2018-04-12T16:36:24.854Z,24.90
2018-04-12T16:38:54.163Z,24.60
2018-04-12T16:41:23.654Z,24.50
2018-04-12T16:43:53.123Z,24.50
2018-04-12T16:46:23.261Z,25.00
2018-04-12T16:48:53.850Z,24.90
2018-04-12T16:51:24.335Z,25.00
2018-04-12T16:53:54.265Z,25.40
2018-04-12T16:56:23.835Z,25.40
2018-04-12T16:58:53.521Z,25.60
2018-04-12T17:01:24.234Z,25.30
2018-04-12T17:03:53.991Z,24.70
2018-04-12T17:06:23.370Z,24.60
2018-04-12T17:08:52.683Z,25.00
2018-04-12T17:11:22.021Z,25.30
2018-04-12T17:13:51.763Z,25.50
2018-04-12T17:16:24.376Z,25.50
2018-04-12T17:18:54.269Z,25.20
2018-04-12T17:21:25.371Z,25.50
2018-04-12T17:23:55.250Z,25.80
2018-04-12T17:26:24.610Z,25.90
2018-04-12T17:28:54.820Z,25.70
2018-04-12T17:31:24.169Z,25.90
2018-04-12T17:33:59.429Z,26.10
2018-04-12T17:36:29.839Z,26.10
2018-04-12T17:39:00.809Z,25.70
2018-04-12T17:41:31.088Z,25.40
2018-04-12T17:44:05.004Z,25.30
2018-04-12T17:46:38.124Z,25.50
2018-04-12T17:49:07.584Z,25.30
2018-04-12T17:51:36.942Z,25.10
2018-04-12T17:54:08.775Z,26.00
2018-04-12T17:56:38.396Z,25.90
2018-04-12T17:59:07.777Z,26.40
2018-04-12T18:01:37.256Z,26.20
2018-04-12T18:04:11.354Z,25.30
2018-04-12T18:06:42.212Z,25.00
2018-04-12T18:09:12.467Z,25.20
2018-04-12T18:11:41.859Z,25.50
2018-04-12T18:14:13.913Z,25.90
2018-04-12T18:16:46.970Z,26.30
2018-04-12T18:19:17.714Z,26.30
2018-04-12T18:21:49.437Z,25.80
2018-04-12T18:24:18.781Z,25.70
2018-04-12T18:26:52.063Z,25.30
2018-04-12T18:29:21.408Z,25.40
2018-04-12T18:31:50.805Z,25.80
2018-04-12T18:34:20.227Z,25.60
2018-04-12T18:36:49.690Z,25.30
2018-04-12T18:39:19.146Z,25.90
2018-04-12T18:41:50.516Z,26.60
2018-04-12T18:44:20.140Z,27.10
2018-04-12T18:46:50.259Z,26.60
2018-04-12T18:49:20.422Z,27.20
2018-04-12T18:51:49.970Z,27.20
2018-04-12T18:54:19.410Z,27.40
2018-04-12T18:56:49.492Z,27.40
2018-04-12T18:59:18.950Z,27.20
2018-04-12T19:01:48.317Z,27.30
2018-04-12T19:04:17.754Z,27.30
2018-04-12T19:06:47.226Z,27.50
2018-04-12T19:09:16.715Z,27.70
2018-04-12T19:11:46.421Z,26.80
2018-04-12T19:14:16.567Z,26.50
2018-04-12T19:16:46.626Z,26.80
2018-04-12T19:19:19.753Z,26.80
2018-04-12T19:21:49.306Z,26.50
2018-04-12T19:24:19.024Z,26.20
2018-04-12T19:26:48.574Z,26.50
2018-04-12T19:29:18.047Z,26.80
2018-04-12T19:31:47.407Z,26.80
2018-04-12T19:34:17.968Z,27.20
2018-04-12T19:36:52.597Z,27.10
2018-04-12T19:39:22.645Z,27.00
2018-04-12T19:41:55.693Z,26.80
2018-04-12T19:44:25.281Z,26.90
2018-04-12T19:46:54.797Z,27.60
2018-04-12T19:49:25.574Z,27.60
2018-04-12T19:51:56.117Z,27.10
2018-04-12T19:54:25.564Z,26.50
2018-04-12T19:56:56.484Z,26.60
2018-04-12T19:59:27.471Z,26.90
2018-04-12T20:02:00.130Z,26.50
2018-04-12T20:04:29.705Z,26.20
2018-04-12T20:06:59.371Z,26.50
2018-04-12T20:09:31.363Z,26.40
2018-04-12T20:12:00.777Z,26.50
2018-04-12T20:14:30.802Z,26.80
2018-04-12T20:17:00.597Z,27.10
2018-04-12T20:19:29.968Z,27.20
2018-04-12T20:22:00.140Z,27.50
2018-04-12T20:24:29.517Z,27.40
2018-04-12T20:26:58.988Z,27.60
2018-04-12T20:29:28.499Z,27.50
2018-04-12T20:31:58.713Z,27.50
2018-04-12T20:34:28.158Z,27.40
2018-04-12T20:36:58.448Z,27.30
2018-04-12T20:39:28.714Z,27.10
2018-04-12T20:41:59.699Z,27.00
2018-04-12T20:44:29.303Z,26.50
2018-04-12T20:46:58.741Z,26.60
2018-04-12T20:52:49.982Z,26.80
2018-04-12T20:55:19.325Z,27.40
2018-04-12T20:57:48.878Z,27.50
2018-04-12T21:00:18.311Z,27.60
2018-04-12T21:02:48.724Z,27.60
2018-04-12T21:05:26.824Z,27.60
2018-04-12T21:08:01.741Z,27.50
2018-04-12T21:13:53.229Z,27.60
2018-04-12T21:16:22.637Z,27.00
2018-04-12T21:18:52.244Z,26.40
2018-04-12T21:21:23.400Z,26.00
2018-04-12T21:23:53.379Z,25.70
2018-04-12T21:26:23.000Z,25.50
2018-04-12T21:28:52.425Z,25.30
2018-04-12T21:31:21.753Z,25.30
2018-04-12T21:33:51.066Z,25.30
2018-04-12T21:36:20.420Z,25.30
2018-04-12T21:38:49.959Z,25.20
2018-04-12T21:41:19.359Z,25.30
2018-04-12T21:43:48.845Z,25.50
2018-04-12T21:46:18.225Z,25.80
2018-04-12T21:48:48.280Z,26.00
2018-04-12T21:51:17.586Z,25.90
2018-04-12T21:53:46.961Z,26.00
2018-04-12T21:56:17.144Z,25.80
2018-04-12T21:58:46.702Z,25.80
2018-04-12T22:01:16.099Z,25.80
2018-04-12T22:03:45.411Z,25.40
2018-04-12T22:06:14.830Z,25.00
2018-04-12T22:08:44.303Z,24.90
2018-04-12T22:11:13.686Z,25.30
2018-04-12T22:13:43.006Z,25.30
2018-04-12T22:16:12.703Z,25.10
2018-04-12T22:18:42.361Z,24.90
2018-04-12T22:21:11.671Z,25.20
2018-04-12T22:23:41.832Z,25.60
2018-04-12T22:26:11.446Z,25.50
2018-04-12T22:28:40.759Z,25.10
2018-04-12T22:31:10.158Z,24.80
2018-04-12T22:33:39.485Z,24.50
2018-04-12T22:36:08.783Z,24.10
2018-04-12T22:42:10.266Z,23.70
2018-04-12T22:44:40.014Z,23.60
2018-04-12T22:47:10.429Z,23.40
2018-04-12T22:49:40.033Z,23.40
2018-04-12T22:52:09.601Z,23.30
2018-04-12T22:54:39.239Z,23.50
2018-04-12T22:57:08.663Z,23.60
2018-04-12T22:59:38.075Z,23.50
2018-04-12T23:02:08.151Z,23.50
2018-04-12T23:07:58.732Z,23.20
2018-04-12T23:10:28.111Z,22.80
2018-04-12T23:12:57.620Z,22.70
2018-04-12T23:15:27.236Z,22.60
2018-04-12T23:17:58.502Z,22.50
2018-04-12T23:20:29.784Z,22.40
2018-04-12T23:22:59.219Z,22.20
2018-04-12T23:25:29.264Z,22.20
2018-04-12T23:27:59.032Z,22.20
2018-04-12T23:30:28.392Z,22.10
2018-04-12T23:32:57.976Z,22.00
2018-04-12T23:35:27.458Z,22.00
2018-04-12T23:37:56.873Z,21.90
2018-04-12T23:40:27.084Z,21.80
2018-04-12T23:42:56.516Z,21.80
2018-04-12T23:45:26.620Z,21.80
2018-04-12T23:51:17.231Z,21.60
2018-04-12T23:53:48.556Z,21.50
2018-04-12T23:56:19.648Z,21.40
2018-04-12T23:58:51.080Z,21.30
